Time;durP1;ratioP1;P1;durP2;ratioP2;P2;SDS_P1;SDS_P2;PMS_P1;PMS_P2;Temp;Humidity;BMP_temperature;BMP_pressure;BME280_temperature;BME280_humidity;BME280_pressure;Samples;Min_cycle;Max_cycle;Signal;HPM_P1;HPM_P2
2021/08/14 00:01:12;;;;;;;0.25;0.25;;;;;;;14.28;51.41;98507.59;6185402;23;20016;-67
2021/08/14 00:03:37;;;;;;;0.10;0.10;;;;;;;14.26;51.48;98508.97;6184993;23;20025;-67
2021/08/14 00:06:03;;;;;;;0.20;0.20;;;;;;;14.27;51.16;98505.13;6184037;23;20112;-68
2021/08/14 00:08:29;;;;;;;0.10;0.10;;;;;;;14.27;51.33;98499.59;6184887;23;20036;-68
2021/08/14 00:10:55;;;;;;;0.20;0.20;;;;;;;14.28;51.27;98502.09;6158505;23;20047;-67
2021/08/14 00:13:20;;;;;;;0.13;0.13;;;;;;;14.28;51.17;98499.31;6185262;23;20009;-69
2021/08/14 00:15:46;;;;;;;0.17;0.17;;;;;;;14.29;51.01;98500.97;6184864;23;20011;-67
2021/08/14 00:18:12;;;;;;;0.20;0.20;;;;;;;14.31;50.94;98497.94;6188892;23;20151;-70
2021/08/14 00:20:37;;;;;;;0.30;0.30;;;;;;;14.31;50.91;98501.56;6188980;23;20013;-69
2021/08/14 00:23:03;;;;;;;0.20;0.20;;;;;;;14.32;51.09;98494.91;6191636;23;20012;-70
2021/08/14 00:25:29;;;;;;;0.65;0.20;;;;;;;14.34;50.99;98495.50;6192097;23;20009;-69
2021/08/14 00:27:55;;;;;;;0.20;0.20;;;;;;;14.37;50.92;98505.19;6212881;23;20024;-70
2021/08/14 00:30:21;;;;;;;0.20;0.20;;;;;;;14.39;50.92;98491.09;6213367;23;20001;-67
2021/08/14 00:32:47;;;;;;;0.38;0.38;;;;;;;14.44;50.65;98491.09;6211660;23;20004;-67
2021/08/14 00:35:13;;;;;;;0.47;0.45;;;;;;;14.47;50.71;98496.09;6187676;23;20041;-67
2021/08/14 00:37:39;;;;;;;0.50;0.50;;;;;;;14.51;50.56;98491.69;6194421;23;20386;-70
2021/08/14 00:40:05;;;;;;;0.20;0.20;;;;;;;14.55;50.66;98495.59;6185397;23;20009;-69
2021/08/14 00:42:31;;;;;;;0.43;0.30;;;;;;;14.58;50.40;98503.34;6185064;23;20009;-69
2021/08/14 00:45:00;;;;;;;0.30;0.30;;;;;;;14.64;50.37;98487.66;6185005;23;20020;-68
2021/08/14 00:47:26;;;;;;;0.22;0.22;;;;;;;14.70;50.38;98492.91;6184882;23;20040;-68
2021/08/14 00:49:53;;;;;;;0.20;0.20;;;;;;;14.76;50.31;98490.19;6184851;23;20079;-69
2021/08/14 00:52:19;;;;;;;0.10;0.10;;;;;;;14.82;50.08;98489.09;6184762;23;20009;-69
2021/08/14 00:54:45;;;;;;;0.20;0.20;;;;;;;14.88;49.96;98493.53;6200344;23;20013;-68
2021/08/14 00:57:11;;;;;;;0.50;0.50;;;;;;;14.93;50.01;98493.59;6194078;23;20453;-67
2021/08/14 00:59:37;;;;;;;0.17;0.17;;;;;;;15.01;49.75;98493.03;6185068;23;20013;-69
2021/08/14 01:02:08;;;;;;;0.30;0.30;;;;;;;15.11;49.58;98489.47;6184507;23;20013;-68
2021/08/14 01:04:35;;;;;;;0.10;0.10;;;;;;;15.18;49.50;98495.59;6184218;23;20013;-69
2021/08/14 01:07:00;;;;;;;0.30;0.30;;;;;;;15.27;49.25;98495.88;6184144;23;20095;-68
2021/08/14 01:09:30;;;;;;;0.47;0.47;;;;;;;15.37;49.25;98487.59;6184325;23;20052;-68
2021/08/14 01:12:02;;;;;;;0.38;0.38;;;;;;;15.47;49.26;98491.47;6184377;23;20017;-67
2021/08/14 01:14:29;;;;;;;0.20;0.20;;;;;;;15.58;49.23;98493.16;6184301;23;20092;-68
2021/08/14 01:16:55;;;;;;;0.20;0.20;;;;;;;15.78;48.78;98495.13;6185310;23;20013;-68
2021/08/14 01:19:22;;;;;;;0.20;0.20;;;;;;;16.21;47.94;98490.13;6186354;23;20471;-67
2021/08/14 01:21:49;;;;;;;0.10;0.10;;;;;;;16.93;46.59;98492.69;6186300;23;20013;-67
2021/08/14 01:24:16;;;;;;;0.25;0.25;;;;;;;17.70;45.25;98488.59;6186523;23;20346;-68
2021/08/14 01:26:42;;;;;;;0.10;0.10;;;;;;;18.44;44.00;98484.88;6186367;23;20013;-68
2021/08/14 01:29:08;;;;;;;0.17;0.17;;;;;;;19.03;43.24;98482.81;6186347;23;20346;-71
2021/08/14 01:31:34;;;;;;;0.30;0.30;;;;;;;19.58;42.48;98482.28;6186417;23;20013;-67
2021/08/14 01:34:00;;;;;;;0.20;0.20;;;;;;;20.06;41.91;98472.91;6186666;23;20397;-67
2021/08/14 01:36:26;;;;;;;0.50;0.50;;;;;;;20.53;41.36;98473.69;6185427;23;20345;-67
2021/08/14 01:38:58;;;;;;;0.10;0.10;;;;;;;21.02;40.81;98468.53;6186324;23;20013;-67
2021/08/14 01:41:24;;;;;;;0.85;0.25;;;;;;;21.50;40.33;98468.03;6186339;23;20519;-68
2021/08/14 01:43:53;;;;;;;0.10;0.10;;;;;;;21.92;39.92;98465.03;6185861;23;20095;-66
2021/08/14 01:46:19;;;;;;;0.10;0.10;;;;;;;22.41;39.16;98465.22;6186163;23;20013;-67
2021/08/14 01:48:45;;;;;;;0.10;0.10;;;;;;;22.94;38.94;98471.81;6186422;23;20009;-67
2021/08/14 01:51:11;;;;;;;0.10;0.10;;;;;;;23.47;38.15;98466.31;6186190;23;20068;-67
2021/08/14 01:53:36;;;;;;;0.10;0.10;;;;;;;24.02;37.60;98462.84;6186377;23;20393;-67
2021/08/14 01:56:02;;;;;;;0.20;0.20;;;;;;;24.47;37.14;98462.41;6159816;23;20017;-66
2021/08/14 01:58:28;;;;;;;0.10;0.10;;;;;;;24.93;36.76;98467.53;6185716;23;20013;-66
2021/08/14 02:00:53;;;;;;;0.63;0.60;;;;;;;25.43;36.25;98465.91;6185963;23;20350;-67
2021/08/14 02:03:19;;;;;;;0.30;0.30;;;;;;;25.87;35.75;98461.56;6186200;23;20040;-66
2021/08/14 02:05:45;;;;;;;0.20;0.20;;;;;;;26.26;35.44;98464.16;6185628;23;20020;-68
2021/08/14 02:08:11;;;;;;;0.10;0.10;;;;;;;26.70;35.10;98458.03;6186241;23;20092;-66
2021/08/14 02:10:37;;;;;;;0.10;0.10;;;;;;;27.04;34.90;98462.38;6186304;23;20087;-65
2021/08/14 02:13:03;;;;;;;0.28;0.28;;;;;;;27.34;34.96;98459.34;6185887;23;20040;-63
2021/08/14 02:15:28;;;;;;;0.30;0.30;;;;;;;27.79;34.43;98454.59;6186346;23;20087;-65
2021/08/14 02:17:54;;;;;;;0.10;0.10;;;;;;;28.14;33.87;98448.38;6186037;23;20013;-64
2021/08/14 02:20:20;;;;;;;0.10;0.10;;;;;;;28.54;33.69;98443.75;6159845;23;20080;-65
2021/08/14 02:22:46;;;;;;;0.10;0.10;;;;;;;28.90;33.52;98445.50;6185735;23;20036;-66
2021/08/14 02:25:11;;;;;;;0.10;0.10;;;;;;;29.22;33.22;98439.81;6185595;23;20013;-65
2021/08/14 02:27:37;;;;;;;0.17;0.17;;;;;;;29.59;32.91;98432.94;6185276;23;20096;-66
2021/08/14 02:30:06;;;;;;;0.22;0.22;;;;;;;29.88;32.70;98431.56;6185587;23;20009;-65
2021/08/14 02:32:32;;;;;;;0.10;0.10;;;;;;;30.22;32.46;98434.63;6185605;23;20009;-65
2021/08/14 02:34:58;;;;;;;0.20;0.20;;;;;;;30.48;32.09;98438.78;6185134;23;20021;-66
2021/08/14 02:37:23;;;;;;;0.10;0.10;;;;;;;30.85;31.91;98438.19;6185436;23;20054;-65
2021/08/14 02:39:49;;;;;;;0.15;0.15;;;;;;;31.16;31.52;98434.22;6185422;23;20029;-66
2021/08/14 02:42:15;;;;;;;0.10;0.10;;;;;;;31.52;31.18;98440.44;6185565;23;20009;-73
2021/08/14 02:44:40;;;;;;;1.00;0.40;;;;;;;31.77;31.07;98442.78;6185779;23;20020;-66
2021/08/14 02:47:06;;;;;;;0.13;0.13;;;;;;;32.02;31.18;98431.72;6185392;23;20013;-66
2021/08/14 02:49:32;;;;;;;0.15;0.15;;;;;;;32.29;30.65;98435.31;6185368;23;20009;-67
2021/08/14 02:51:58;;;;;;;0.45;0.20;;;;;;;32.59;30.64;98431.50;6185483;23;20013;-64
2021/08/14 02:54:25;;;;;;;0.55;0.13;;;;;;;32.75;30.55;98422.75;6185502;23;20092;-67
2021/08/14 02:56:50;;;;;;;0.10;0.10;;;;;;;32.97;30.21;98431.47;6182695;23;20008;-69
2021/08/14 02:59:16;;;;;;;0.30;0.30;;;;;;;33.17;30.22;98424.28;6185852;23;20080;-64
2021/08/14 03:01:42;;;;;;;0.45;0.30;;;;;;;33.37;30.19;98435.41;6186982;23;20025;-62
2021/08/14 03:04:07;;;;;;;0.10;0.10;;;;;;;33.68;29.94;98433.91;6185398;23;20523;-66
2021/08/14 03:06:33;;;;;;;0.10;0.10;;;;;;;33.90;29.56;98421.84;6184989;23;20020;-64
2021/08/14 03:08:59;;;;;;;0.10;0.10;;;;;;;34.09;29.16;98427.19;6185329;23;20084;-65
2021/08/14 03:11:25;;;;;;;0.17;0.17;;;;;;;34.32;29.37;98421.16;6185054;23;20009;-65
2021/08/14 03:13:51;;;;;;;0.10;0.10;;;;;;;34.42;28.92;98425.25;6185694;23;20019;-65
2021/08/14 03:16:16;;;;;;;0.10;0.10;;;;;;;34.60;29.07;98416.72;6185182;23;20020;-66
2021/08/14 03:18:42;;;;;;;0.10;0.10;;;;;;;34.90;28.85;98413.47;6184674;23;20067;-66
2021/08/14 03:21:08;;;;;;;0.10;0.10;;;;;;;35.53;28.20;98420.72;6185138;23;20016;-67
2021/08/14 03:23:34;;;;;;;0.10;0.10;;;;;;;36.22;27.13;98416.31;6184911;23;20067;-67
2021/08/14 03:25:59;;;;;;;0.63;0.63;;;;;;;36.51;27.37;98416.13;6184827;23;20036;-66
2021/08/14 03:28:25;;;;;;;0.22;0.22;;;;;;;36.56;27.41;98414.88;6184957;23;20016;-66
2021/08/14 03:30:51;;;;;;;0.43;0.20;;;;;;;36.62;27.73;98408.28;6185383;23;20393;-66
2021/08/14 03:33:16;;;;;;;0.15;0.15;;;;;;;36.82;27.29;98402.03;6185114;23;20017;-67
2021/08/14 03:35:42;;;;;;;0.13;0.13;;;;;;;36.97;27.28;98394.13;6184387;23;20016;-67
2021/08/14 03:38:08;;;;;;;0.10;0.10;;;;;;;37.03;27.67;98401.03;6184995;23;20017;-67
2021/08/14 03:40:34;;;;;;;0.10;0.10;;;;;;;37.06;27.28;98399.34;6185118;23;20028;-68
2021/08/14 03:42:59;;;;;;;0.20;0.20;;;;;;;37.21;27.26;98397.97;6184617;23;20087;-67
2021/08/14 03:45:25;;;;;;;0.68;0.20;;;;;;;37.43;26.81;98397.78;6184898;23;20067;-67
2021/08/14 03:47:51;;;;;;;0.25;0.20;;;;;;;37.51;26.92;98405.03;6185339;23;20047;-68
2021/08/14 03:50:16;;;;;;;0.20;0.20;;;;;;;37.53;27.00;98402.56;6184798;23;20005;-68
2021/08/14 03:52:42;;;;;;;0.30;0.30;;;;;;;37.76;26.89;98392.47;6185008;23;20015;-66
2021/08/14 03:55:09;;;;;;;0.20;0.20;;;;;;;38.09;26.44;98393.66;6185084;23;20016;-66
2021/08/14 03:57:34;;;;;;;0.47;0.47;;;;;;;38.42;26.21;98396.06;6184926;23;20036;-66
2021/08/14 04:00:01;;;;;;;0.10;0.10;;;;;;;38.70;25.73;98380.47;6185029;23;20461;-67
2021/08/14 04:02:27;;;;;;;0.80;0.60;;;;;;;39.00;25.42;98388.09;6184713;23;20031;-68
2021/08/14 04:04:52;;;;;;;0.30;0.30;;;;;;;39.23;25.25;98381.56;6184292;23;20052;-66
2021/08/14 04:07:19;;;;;;;0.20;0.20;;;;;;;39.36;25.31;98381.72;6157834;23;20079;-69
2021/08/14 04:09:44;;;;;;;0.20;0.20;;;;;;;39.38;25.46;98382.06;6184187;23;20036;-68
2021/08/14 04:12:10;;;;;;;0.45;0.40;;;;;;;39.60;25.17;98390.28;6185113;23;20009;-68
2021/08/14 04:14:36;;;;;;;0.20;0.20;;;;;;;39.67;24.89;98381.53;6184595;23;20035;-67
2021/08/14 04:17:03;;;;;;;0.10;0.10;;;;;;;39.73;24.93;98376.88;6184609;23;20040;-67
2021/08/14 04:19:28;;;;;;;0.20;0.20;;;;;;;39.78;25.05;98384.16;6184376;23;20128;-67
2021/08/14 04:21:54;;;;;;;3.00;0.40;;;;;;;39.84;25.10;98375.81;6184314;23;20423;-67
2021/08/14 04:24:20;;;;;;;1.35;0.70;;;;;;;40.02;24.77;98370.53;6184288;23;20017;-67
2021/08/14 04:26:45;;;;;;;0.55;0.30;;;;;;;40.13;24.67;98369.47;6184770;23;20013;-67
2021/08/14 04:29:11;;;;;;;0.10;0.10;;;;;;;40.26;24.45;98368.31;6184151;23;20422;-67
2021/08/14 04:31:37;;;;;;;0.85;0.30;;;;;;;40.44;24.32;98372.81;6184587;23;20500;-68
2021/08/14 04:34:03;;;;;;;1.30;0.30;;;;;;;40.40;24.52;98372.91;6184895;23;20005;-66
2021/08/14 04:36:29;;;;;;;0.25;0.25;;;;;;;40.50;24.33;98370.25;6181615;23;20346;-68
2021/08/14 04:38:56;;;;;;;0.30;0.30;;;;;;;40.52;24.34;98370.59;6184797;23;20086;-67
2021/08/14 04:41:21;;;;;;;0.30;0.20;;;;;;;40.45;24.33;98381.03;6184821;23;20009;-66
2021/08/14 04:45:38;;;;;;;0.20;0.20;;;;;;;40.09;24.62;98370.38;5090903;27;20406;-66
2021/08/14 04:48:04;;;;;;;0.50;0.30;;;;;;;39.94;24.73;98372.69;5090237;28;20780;-63
2021/08/14 04:50:29;;;;;;;0.35;0.35;;;;;;;39.88;24.25;98371.63;5089883;28;20058;-62
2021/08/14 04:52:55;;;;;;;0.20;0.20;;;;;;;39.88;24.46;98371.63;5089682;28;20032;-63
2021/08/14 04:55:21;;;;;;;0.55;0.30;;;;;;;39.84;24.37;98370.88;5090001;28;20060;-62
2021/08/14 04:57:46;;;;;;;0.10;0.10;;;;;;;39.73;24.20;98376.88;5090088;28;20041;-69
2021/08/14 05:00:13;;;;;;;0.57;0.52;;;;;;;39.66;24.28;98367.59;5089991;28;20052;-72
2021/08/14 05:02:38;;;;;;;0.10;0.10;;;;;;;39.56;24.17;98366.56;5090341;28;20036;-69
2021/08/14 05:05:05;;;;;;;0.30;0.30;;;;;;;39.22;24.61;98356.16;5090556;28;20063;-69
2021/08/14 05:07:34;;;;;;;0.55;0.50;;;;;;;37.97;25.79;98352.06;5098085;28;20051;-70
2021/08/14 05:09:59;;;;;;;1.10;0.40;;;;;;;35.83;28.45;98365.94;5095780;28;20028;-69
2021/08/14 05:12:25;;;;;;;0.40;0.35;;;;;;;34.11;29.88;98370.63;5091653;28;20043;-68
2021/08/14 05:14:51;;;;;;;2.10;0.40;;;;;;;32.92;31.30;98372.09;5089772;28;20486;-67
2021/08/14 05:17:16;;;;;;;1.13;0.32;;;;;;;31.97;32.04;98366.78;5089926;28;20032;-69
2021/08/14 05:19:42;;;;;;;1.83;1.08;;;;;;;31.21;32.48;98365.84;5089611;28;20441;-71
2021/08/14 05:22:08;;;;;;;2.47;0.70;;;;;;;30.61;32.85;98371.38;5089480;28;20407;-67
2021/08/14 05:24:33;;;;;;;0.57;0.57;;;;;;;30.07;33.26;98379.75;5089272;28;20177;-67
2021/08/14 05:26:59;;;;;;;0.40;0.22;;;;;;;29.55;33.37;98376.31;5089199;28;20122;-68
2021/08/14 05:29:25;;;;;;;0.55;0.40;;;;;;;29.05;33.80;98384.50;5089192;28;20028;-68
2021/08/14 05:31:51;;;;;;;0.50;0.50;;;;;;;28.60;34.12;98375.34;5089279;28;20082;-67
2021/08/14 05:34:16;;;;;;;1.25;0.65;;;;;;;28.29;34.17;98364.88;5088419;28;20115;-67
2021/08/14 05:36:42;;;;;;;2.35;1.35;;;;;;;27.93;34.19;98359.09;5080574;28;20062;-67
2021/08/14 05:39:08;;;;;;;0.60;0.60;;;;;;;27.59;34.59;98357.72;5068737;28;20082;-62
2021/08/14 05:41:39;;;;;;;0.80;0.77;;;;;;;27.28;34.62;98362.88;5067382;28;20055;-63
2021/08/14 05:44:05;;;;;;;3.97;0.57;;;;;;;27.19;34.14;98370.66;5068766;28;20065;-69
2021/08/14 05:46:31;;;;;;;1.38;1.27;;;;;;;27.11;33.78;98360.34;5068707;28;20402;-69
2021/08/14 05:48:56;;;;;;;0.70;0.70;;;;;;;27.10;33.62;98359.53;5068747;28;20112;-66
2021/08/14 05:51:24;;;;;;;0.57;0.57;;;;;;;27.07;33.78;98357.41;5068895;28;20033;-66
2021/08/14 05:53:50;;;;;;;0.35;0.32;;;;;;;27.02;33.28;98356.84;5068736;28;20503;-68
2021/08/14 05:56:15;;;;;;;0.77;0.60;;;;;;;26.97;33.42;98363.53;5059093;28;20035;-65
2021/08/14 05:58:41;;;;;;;0.57;0.50;;;;;;;26.91;33.57;98351.72;5055401;28;20162;-67
2021/08/14 06:01:07;;;;;;;2.28;1.00;;;;;;;26.86;33.25;98353.94;5055942;28;20040;-70
2021/08/14 06:03:35;;;;;;;0.95;0.47;;;;;;;26.74;33.38;98344.34;5055355;28;20029;-68
2021/08/14 06:06:01;;;;;;;0.88;0.30;;;;;;;26.71;33.29;98349.88;5054510;28;20040;-67
2021/08/14 06:08:26;;;;;;;1.52;0.50;;;;;;;26.73;33.11;98350.31;5054979;28;20399;-66
2021/08/14 06:10:52;;;;;;;0.63;0.63;;;;;;;26.86;33.12;98342.69;5062308;28;20025;-67
2021/08/14 06:13:18;;;;;;;6.18;0.73;;;;;;;26.97;32.86;98340.19;5058325;28;20037;-69
2021/08/14 06:15:43;;;;;;;2.05;0.90;;;;;;;27.01;32.60;98343.94;5055185;28;20037;-69
2021/08/14 06:18:11;;;;;;;4.75;0.93;;;;;;;27.05;32.78;98331.59;5055069;28;20040;-66
2021/08/14 06:20:37;;;;;;;0.80;0.57;;;;;;;27.11;32.81;98335.00;5055011;28;20045;-65
2021/08/14 06:23:03;;;;;;;0.43;0.43;;;;;;;27.15;32.80;98323.81;5071915;28;20519;-67
2021/08/14 06:25:29;;;;;;;0.20;0.20;;;;;;;27.16;32.51;98326.28;5073141;28;20044;-66
2021/08/14 06:27:55;;;;;;;0.70;0.65;;;;;;;27.16;32.71;98325.47;5070751;28;20043;-66
2021/08/14 06:30:21;;;;;;;0.32;0.30;;;;;;;27.08;32.79;98330.88;5073402;28;20031;-68
2021/08/14 06:32:46;;;;;;;1.65;0.82;;;;;;;27.06;32.74;98321.97;5073415;28;20032;-67
2021/08/14 06:35:12;;;;;;;0.70;0.68;;;;;;;27.04;32.88;98310.22;5071957;28;20495;-70
2021/08/14 06:37:44;;;;;;;1.40;1.30;;;;;;;27.05;32.68;98303.41;5073025;28;20078;-70
2021/08/14 06:40:12;;;;;;;1.88;0.95;;;;;;;26.95;32.67;98295.47;5073179;28;20097;-68
2021/08/14 06:42:39;;;;;;;1.70;0.80;;;;;;;26.88;33.04;98306.53;5073058;28;20529;-67
2021/08/14 06:45:07;;;;;;;1.38;1.05;;;;;;;26.80;32.98;98307.50;5072952;28;20127;-68
2021/08/14 06:47:32;;;;;;;0.52;0.52;;;;;;;26.69;32.99;98318.41;5072697;28;20025;-69
2021/08/14 06:49:58;;;;;;;0.50;0.50;;;;;;;26.60;33.25;98312.06;5072719;28;20103;-73
2021/08/14 06:52:25;;;;;;;0.60;0.52;;;;;;;26.57;33.44;98305.13;5067043;28;20123;-67
2021/08/14 06:54:50;;;;;;;1.30;0.90;;;;;;;26.55;33.25;98315.94;5060620;28;20467;-68
2021/08/14 06:57:16;;;;;;;1.30;0.50;;;;;;;26.60;32.96;98314.88;5054278;28;20108;-72
2021/08/14 06:59:42;;;;;;;1.30;1.02;;;;;;;26.64;32.98;98321.44;5054259;28;20476;-69
2021/08/14 07:02:08;;;;;;;1.00;0.68;;;;;;;26.71;32.99;98318.91;5053876;28;20029;-72
2021/08/14 07:04:36;;;;;;;1.23;0.98;;;;;;;26.79;33.12;98308.66;5053692;28;20101;-71
2021/08/14 07:07:01;;;;;;;0.50;0.47;;;;;;;26.86;32.82;98311.69;5053087;28;20025;-69
2021/08/14 07:09:27;;;;;;;1.27;0.73;;;;;;;26.93;32.90;98307.09;5053963;28;20510;-68
2021/08/14 07:11:53;;;;;;;0.95;0.88;;;;;;;26.98;32.62;98305.22;5071520;28;20032;-68
2021/08/14 07:14:19;;;;;;;1.67;1.05;;;;;;;27.02;32.93;98297.69;5076841;28;20078;-69
2021/08/14 07:16:44;;;;;;;0.45;0.40;;;;;;;27.03;32.84;98288.03;5067603;28;20039;-65
2021/08/14 07:19:10;;;;;;;1.40;1.20;;;;;;;27.06;33.13;98295.78;5070409;28;20024;-67
2021/08/14 07:21:36;;;;;;;3.30;2.17;;;;;;;27.13;32.79;98296.00;5070451;28;20116;-67
2021/08/14 07:24:02;;;;;;;1.20;1.10;;;;;;;27.16;32.80;98289.63;5068391;28;20402;-68
2021/08/14 07:26:28;;;;;;;2.90;1.02;;;;;;;27.18;32.82;98289.28;5069522;28;20024;-63
2021/08/14 07:28:53;;;;;;;0.98;0.70;;;;;;;27.21;32.77;98295.03;5068708;28;20032;-64
2021/08/14 07:31:19;;;;;;;2.30;1.33;;;;;;;27.20;33.00;98286.94;5070119;28;20035;-65
2021/08/14 07:33:45;;;;;;;0.75;0.75;;;;;;;27.18;32.63;98290.13;5070905;28;20048;-66
2021/08/14 07:36:11;;;;;;;1.30;1.02;;;;;;;27.16;33.02;98281.19;5070571;28;20060;-66
2021/08/14 07:38:37;;;;;;;3.35;1.92;;;;;;;27.18;33.11;98287.31;5071797;28;20394;-68
2021/08/14 07:41:03;;;;;;;0.65;0.50;;;;;;;27.24;32.98;98285.03;5071126;28;20039;-64
2021/08/14 07:43:28;;;;;;;0.88;0.82;;;;;;;27.29;32.71;98279.13;5073136;28;20127;-64
2021/08/14 07:45:54;;;;;;;1.88;0.98;;;;;;;27.36;32.84;98278.56;5072630;28;20036;-63
2021/08/14 07:48:20;;;;;;;2.47;1.25;;;;;;;27.40;32.72;98277.47;5072666;28;20058;-65
2021/08/14 07:50:46;;;;;;;1.00;0.90;;;;;;;27.46;32.55;98266.75;5072178;28;20033;-63
2021/08/14 07:53:11;;;;;;;1.00;0.95;;;;;;;27.51;32.72;98269.31;5072562;28;20037;-65
2021/08/14 07:55:37;;;;;;;3.90;1.75;;;;;;;27.55;32.65;98260.97;5071864;28;20040;-65
2021/08/14 07:58:13;;;;;;;7.90;0.98;;;;;;;27.59;32.73;98254.22;5070111;28;20035;-64
2021/08/14 08:00:40;;;;;;;0.73;0.60;;;;;;;27.66;32.53;98259.22;5072524;28;20037;-64
2021/08/14 08:03:10;;;;;;;1.58;1.23;;;;;;;27.74;32.39;98252.59;5072529;28;20033;-66
2021/08/14 08:05:36;;;;;;;1.15;0.65;;;;;;;27.74;32.40;98248.97;5072627;28;20040;-64
2021/08/14 08:08:06;;;;;;;2.25;1.10;;;;;;;27.75;32.61;98250.59;5074493;28;20036;-65
2021/08/14 08:10:34;;;;;;;2.78;1.52;;;;;;;27.78;32.21;98249.84;5072882;28;20032;-64
2021/08/14 08:12:59;;;;;;;0.40;0.38;;;;;;;27.83;32.16;98255.25;5073238;28;20407;-65
2021/08/14 08:15:26;;;;;;;0.85;0.55;;;;;;;27.91;32.07;98248.56;5088846;28;20026;-65
2021/08/14 08:17:52;;;;;;;5.25;1.88;;;;;;;27.99;32.08;98243.16;5094186;28;20043;-63
2021/08/14 08:20:18;;;;;;;3.13;1.25;;;;;;;28.04;32.02;98242.88;5093027;28;20041;-64
2021/08/14 08:22:44;;;;;;;0.80;0.80;;;;;;;28.07;31.97;98247.78;5094356;28;20036;-65
2021/08/14 08:25:12;;;;;;;3.53;1.00;;;;;;;28.14;31.88;98239.50;5091756;28;20483;-62
2021/08/14 08:27:39;;;;;;;3.20;2.30;;;;;;;28.20;31.88;98237.22;5076981;28;20044;-66
2021/08/14 08:30:07;;;;;;;0.38;0.35;;;;;;;28.23;31.63;98245.78;5073247;28;20028;-66
2021/08/14 08:32:33;;;;;;;2.72;1.60;;;;;;;28.26;31.63;98242.22;5072966;28;20048;-66
2021/08/14 08:34:59;;;;;;;2.55;1.58;;;;;;;28.27;31.78;98246.69;5072320;28;20407;-67
2021/08/14 08:37:25;;;;;;;5.22;1.23;;;;;;;28.27;31.93;98243.03;5072912;28;20047;-64
2021/08/14 08:39:50;;;;;;;0.90;0.90;;;;;;;28.27;31.68;98243.84;5072814;28;20036;-67
2021/08/14 08:42:16;;;;;;;5.07;2.58;;;;;;;28.27;31.45;98243.03;5072623;28;20047;-66
2021/08/14 08:44:42;;;;;;;1.00;1.00;;;;;;;28.28;31.46;98234.22;5072166;28;20065;-65
2021/08/14 08:47:09;;;;;;;1.40;1.20;;;;;;;28.32;31.44;98226.63;5072235;28;20036;-70
2021/08/14 08:49:48;;;;;;;6.03;1.77;;;;;;;28.37;31.21;98222.72;5072374;28;20041;-68
2021/08/14 08:52:14;;;;;;;2.35;1.52;;;;;;;28.38;31.33;98226.34;5072853;28;20398;-67
2021/08/14 08:54:40;;;;;;;1.70;0.98;;;;;;;28.37;31.53;98230.34;5072571;28;20040;-66
2021/08/14 08:57:06;;;;;;;6.72;1.70;;;;;;;28.36;31.28;98231.53;5072128;28;20037;-64
2021/08/14 08:59:32;;;;;;;4.43;1.38;;;;;;;28.40;31.56;98229.59;5072976;28;20421;-69
2021/08/14 09:01:57;;;;;;;0.80;0.80;;;;;;;28.42;31.48;98232.91;5072569;28;20036;-65
2021/08/14 09:04:29;;;;;;;2.03;1.17;;;;;;;28.45;31.39;98224.50;5070629;28;20398;-64
2021/08/14 09:06:57;;;;;;;3.63;1.20;;;;;;;28.48;31.22;98220.13;5071845;28;20037;-65
2021/08/14 09:09:28;;;;;;;1.35;1.23;;;;;;;28.52;31.20;98215.38;5072069;28;20036;-65
2021/08/14 09:12:06;;;;;;;3.08;0.63;;;;;;;28.58;31.17;98222.38;5072003;28;20024;-65
2021/08/14 09:14:52;;;;;;;1.50;1.40;;;;;;;28.63;31.03;98212.81;5074459;28;20033;-66
2021/08/14 09:17:24;;;;;;;1.92;1.33;;;;;;;28.66;31.09;98221.34;5075790;28;20040;-65
2021/08/14 09:19:50;;;;;;;0.80;0.52;;;;;;;28.72;31.01;98227.53;5072369;28;20036;-65
2021/08/14 09:22:20;;;;;;;7.95;0.88;;;;;;;28.80;31.07;98220.84;5072007;28;20070;-65
2021/08/14 09:24:46;;;;;;;1.40;1.30;;;;;;;28.85;30.99;98205.59;5072032;28;20584;-66
2021/08/14 09:27:16;;;;;;;2.90;0.82;;;;;;;28.86;30.76;98217.72;5072062;28;20036;-64
2021/08/14 09:29:48;;;;;;;1.98;1.63;;;;;;;28.82;31.14;98212.00;5072366;28;20498;-69
2021/08/14 09:32:19;;;;;;;2.95;0.73;;;;;;;28.80;30.95;98200.28;5075215;28;20032;-65
2021/08/14 09:34:49;;;;;;;4.30;2.15;;;;;;;28.77;31.07;98213.13;5075269;28;20040;-66
2021/08/14 09:37:17;;;;;;;0.95;0.80;;;;;;;28.73;31.08;98202.94;5075251;28;20036;-65
2021/08/14 09:40:02;;;;;;;4.97;1.23;;;;;;;28.72;31.24;98201.31;5075667;28;20032;-66
2021/08/14 09:42:29;;;;;;;1.58;1.10;;;;;;;28.75;31.23;98200.56;5075660;28;20537;-67
2021/08/14 09:45:14;;;;;;;1.75;0.70;;;;;;;28.78;31.05;98194.16;5075451;28;20136;-64
2021/08/14 09:47:42;;;;;;;2.15;1.08;;;;;;;28.82;30.93;98195.06;5075084;28;20513;-67
2021/08/14 09:50:08;;;;;;;2.03;0.80;;;;;;;28.84;30.83;98193.50;5075566;28;20028;-64
2021/08/14 09:52:35;;;;;;;1.15;1.00;;;;;;;28.88;30.96;98193.56;5075272;28;20033;-64
2021/08/14 09:55:01;;;;;;;1.98;1.75;;;;;;;28.94;31.14;98196.91;5075553;28;20402;-64
2021/08/14 09:57:27;;;;;;;2.47;1.35;;;;;;;28.96;30.76;98195.34;5075337;28;20200;-65
2021/08/14 09:59:53;;;;;;;0.77;0.77;;;;;;;29.01;30.89;98182.94;5075250;28;20068;-66
2021/08/14 10:02:28;;;;;;;2.45;2.20;;;;;;;29.09;30.90;98175.41;5075390;28;20459;-65
2021/08/14 10:04:56;;;;;;;0.77;0.75;;;;;;;29.16;30.95;98182.00;5074701;28;20093;-62
2021/08/14 10:07:22;;;;;;;0.60;0.60;;;;;;;29.23;30.79;98183.38;5075253;28;20456;-64
2021/08/14 10:09:49;;;;;;;1.45;1.35;;;;;;;29.25;30.91;98178.16;5074615;28;20039;-66
2021/08/14 10:12:17;;;;;;;1.95;1.15;;;;;;;29.25;30.85;98170.47;5075495;28;20032;-68
2021/08/14 10:14:48;;;;;;;1.17;1.17;;;;;;;29.25;30.91;98164.81;5075268;28;20051;-64
2021/08/14 10:17:15;;;;;;;0.80;0.47;;;;;;;29.20;30.87;98165.13;5074971;28;20442;-66
2021/08/14 10:19:42;;;;;;;1.13;0.65;;;;;;;29.19;30.89;98171.97;5075389;28;20024;-65
2021/08/14 10:22:09;;;;;;;1.67;0.85;;;;;;;29.22;30.79;98156.28;5075345;28;20119;-66
2021/08/14 10:24:45;;;;;;;0.80;0.80;;;;;;;29.22;30.94;98157.09;5075197;28;20067;-66
2021/08/14 10:27:15;;;;;;;0.80;0.80;;;;;;;29.20;30.75;98153.81;5075191;28;20036;-67
2021/08/14 10:29:55;;;;;;;2.22;2.03;;;;;;;29.22;30.78;98147.81;5075639;28;20039;-66
2021/08/14 10:32:41;;;;;;;4.10;1.40;;;;;;;29.27;30.96;98153.13;5075432;28;20032;-66
2021/08/14 10:35:13;;;;;;;1.10;0.65;;;;;;;29.28;30.91;98144.28;5063716;28;20076;-65
2021/08/14 10:37:40;;;;;;;0.68;0.60;;;;;;;29.34;30.57;98153.28;5075297;28;20039;-67
2021/08/14 10:40:07;;;;;;;3.08;1.48;;;;;;;29.42;30.73;98154.25;5073196;28;20058;-67
2021/08/14 10:43:02;;;;;;;0.63;0.47;;;;;;;29.46;30.49;98150.28;5075398;28;20094;-66
2021/08/14 10:45:32;;;;;;;1.90;1.55;;;;;;;29.46;30.57;98155.09;5061527;28;20086;-65
2021/08/14 10:48:03;;;;;;;1.33;1.23;;;;;;;29.46;30.65;98152.28;5074828;28;20043;-66
2021/08/14 10:50:51;;;;;;;5.57;1.15;;;;;;;29.46;30.60;98140.97;5075341;28;20085;-68
2021/08/14 10:53:24;;;;;;;2.08;1.55;;;;;;;29.48;30.78;98141.41;5075424;28;20071;-65
2021/08/14 10:55:54;;;;;;;2.90;1.25;;;;;;;29.47;30.68;98134.91;5074972;28;20050;-65
2021/08/14 10:58:29;;;;;;;1.95;0.77;;;;;;;29.49;30.46;98141.03;5074923;28;20040;-65
2021/08/14 11:01:04;;;;;;;1.65;0.93;;;;;;;29.54;30.48;98134.25;5075064;28;20040;-70
2021/08/14 11:03:33;;;;;;;1.33;1.23;;;;;;;29.56;30.55;98143.16;5074770;28;20051;-65
2021/08/14 11:06:26;;;;;;;1.25;1.10;;;;;;;29.60;30.44;98137.56;5074440;28;20032;-65
2021/08/14 11:09:17;;;;;;;3.35;0.82;;;;;;;29.60;30.39;98135.53;5074866;28;20483;-66
2021/08/14 11:11:49;;;;;;;3.38;1.70;;;;;;;29.62;30.50;98126.69;5075415;28;20111;-66
2021/08/14 11:14:16;;;;;;;2.25;1.77;;;;;;;29.64;30.34;98139.25;5074811;28;20028;-71
2021/08/14 11:17:01;;;;;;;4.38;2.20;;;;;;;29.63;30.26;98128.31;5075120;28;20041;-66
2021/08/14 11:19:53;;;;;;;2.30;1.30;;;;;;;29.64;30.38;98133.59;5084122;28;20080;-66
2021/08/14 11:22:42;;;;;;;0.82;0.82;;;;;;;29.64;30.40;98127.13;5074847;28;20032;-65
2021/08/14 11:25:26;;;;;;;3.47;1.65;;;;;;;29.66;30.30;98138.88;5074411;28;20125;-66
2021/08/14 11:27:58;;;;;;;3.00;1.40;;;;;;;29.66;30.57;98125.53;5074572;28;20410;-68
2021/08/14 11:30:31;;;;;;;4.32;1.50;;;;;;;29.66;30.42;98131.19;5074205;28;20028;-68
2021/08/14 11:32:57;;;;;;;1.98;1.50;;;;;;;29.64;30.45;98133.59;5073839;28;20203;-67
2021/08/14 11:35:25;;;;;;;0.65;0.52;;;;;;;29.63;30.44;98129.13;5073821;28;20089;-65
2021/08/14 11:37:55;;;;;;;3.03;1.92;;;;;;;29.64;30.42;98130.78;5072984;28;20048;-65